sensor_id;sensor_type;location;lat;lon;timestamp;pressure;altitude;pressure_sealevel;temperature;humidity
41712;BME280;27399;51.516;13.670;2023-02-27T00:00:13;101497.44;;;0.19;75.24
41712;BME280;27399;51.516;13.670;2023-02-27T00:02:43;101499.13;;;0.18;75.48
41712;BME280;27399;51.516;13.670;2023-02-27T00:05:10;101495.13;;;0.25;74.91
41712;BME280;27399;51.516;13.670;2023-02-27T00:07:36;101490.19;;;0.31;74.74
41712;BME280;27399;51.516;13.670;2023-02-27T00:10:02;101487.25;;;0.25;74.83
41712;BME280;27399;51.516;13.670;2023-02-27T00:12:27;101493.75;;;0.15;75.37
41712;BME280;27399;51.516;13.670;2023-02-27T00:14:55;101495.69;;;0.19;75.38
41712;BME280;27399;51.516;13.670;2023-02-27T00:17:20;101487.06;;;0.22;75.96
41712;BME280;27399;51.516;13.670;2023-02-27T00:19:46;101482.69;;;0.21;76.09
41712;BME280;27399;51.516;13.670;2023-02-27T00:22:11;101484.38;;;0.20;76.26
41712;BME280;27399;51.516;13.670;2023-02-27T00:24:37;101485.38;;;0.22;76.13
41712;BME280;27399;51.516;13.670;2023-02-27T00:27:03;101480.88;;;0.20;76.19
41712;BME280;27399;51.516;13.670;2023-02-27T00:29:28;101480.34;;;0.27;76.47
41712;BME280;27399;51.516;13.670;2023-02-27T00:31:54;101473.59;;;0.14;76.55
41712;BME280;27399;51.516;13.670;2023-02-27T00:34:19;101477.09;;;0.14;76.56
41712;BME280;27399;51.516;13.670;2023-02-27T00:36:45;101474.91;;;0.06;76.42
41712;BME280;27399;51.516;13.670;2023-02-27T00:39:10;101478.59;;;0.09;76.22
41712;BME280;27399;51.516;13.670;2023-02-27T00:41:36;101486.50;;;-0.07;76.42
41712;BME280;27399;51.516;13.670;2023-02-27T00:44:02;101483.38;;;0.00;75.94
41712;BME280;27399;51.516;13.670;2023-02-27T00:46:27;101486.66;;;-0.04;76.32
41712;BME280;27399;51.516;13.670;2023-02-27T00:48:53;101482.75;;;-0.12;76.36
41712;BME280;27399;51.516;13.670;2023-02-27T00:51:19;101475.25;;;-0.05;76.00
41712;BME280;27399;51.516;13.670;2023-02-27T00:53:46;101483.47;;;-0.15;75.93
41712;BME280;27399;51.516;13.670;2023-02-27T00:56:11;101482.56;;;-0.16;75.65
41712;BME280;27399;51.516;13.670;2023-02-27T00:58:37;101485.50;;;0.07;75.42
41712;BME280;27399;51.516;13.670;2023-02-27T01:01:03;101485.25;;;0.03;75.14
41712;BME280;27399;51.516;13.670;2023-02-27T01:03:29;101487.88;;;0.03;75.39
41712;BME280;27399;51.516;13.670;2023-02-27T01:05:55;101496.56;;;0.02;75.97
41712;BME280;27399;51.516;13.670;2023-02-27T01:08:21;101486.19;;;-0.13;76.50
41712;BME280;27399;51.516;13.670;2023-02-27T01:10:46;101478.19;;;-0.33;76.63
41712;BME280;27399;51.516;13.670;2023-02-27T01:13:12;101495.13;;;-0.43;77.21
41712;BME280;27399;51.516;13.670;2023-02-27T01:15:38;101494.03;;;-0.30;77.06
41712;BME280;27399;51.516;13.670;2023-02-27T01:18:03;101489.94;;;-0.08;77.17
41712;BME280;27399;51.516;13.670;2023-02-27T01:20:29;101493.72;;;-0.03;77.77
41712;BME280;27399;51.516;13.670;2023-02-27T01:22:54;101489.91;;;0.08;77.82
41712;BME280;27399;51.516;13.670;2023-02-27T01:25:20;101486.19;;;0.21;77.53
41712;BME280;27399;51.516;13.670;2023-02-27T01:27:46;101481.34;;;0.29;77.29
41712;BME280;27399;51.516;13.670;2023-02-27T01:30:11;101485.06;;;0.34;76.92
41712;BME280;27399;51.516;13.670;2023-02-27T01:32:39;101474.13;;;0.25;77.01
41712;BME280;27399;51.516;13.670;2023-02-27T01:35:05;101475.84;;;0.42;76.70
41712;BME280;27399;51.516;13.670;2023-02-27T01:37:30;101471.44;;;0.59;76.77
41712;BME280;27399;51.516;13.670;2023-02-27T01:39:56;101481.50;;;0.50;76.60
41712;BME280;27399;51.516;13.670;2023-02-27T01:42:24;101485.69;;;0.46;75.96
41712;BME280;27399;51.516;13.670;2023-02-27T01:47:46;101487.72;;;0.52;75.71
41712;BME280;27399;51.516;13.670;2023-02-27T01:50:13;101480.78;;;0.53;74.98
41712;BME280;27399;51.516;13.670;2023-02-27T01:52:40;101484.06;;;0.67;75.77
41712;BME280;27399;51.516;13.670;2023-02-27T01:55:08;101482.66;;;0.73;75.41
41712;BME280;27399;51.516;13.670;2023-02-27T01:57:37;101488.09;;;0.60;75.08
41712;BME280;27399;51.516;13.670;2023-02-27T02:00:04;101492.22;;;0.73;75.36
41712;BME280;27399;51.516;13.670;2023-02-27T02:02:37;101487.50;;;0.66;74.17
41712;BME280;27399;51.516;13.670;2023-02-27T02:05:06;101487.72;;;0.70;75.97
41712;BME280;27399;51.516;13.670;2023-02-27T02:07:33;101495.06;;;0.77;75.90
41712;BME280;27399;51.516;13.670;2023-02-27T02:09:59;101491.78;;;0.64;76.35
41712;BME280;27399;51.516;13.670;2023-02-27T02:12:28;101478.28;;;0.92;75.83
41712;BME280;27399;51.516;13.670;2023-02-27T02:14:54;101479.81;;;1.06;74.99
41712;BME280;27399;51.516;13.670;2023-02-27T02:31:02;101474.69;;;1.10;76.09
41712;BME280;27399;51.516;13.670;2023-02-27T02:42:04;101462.34;;;1.27;76.68
41712;BME280;27399;51.516;13.670;2023-02-27T02:44:57;101467.72;;;1.48;75.69
41712;BME280;27399;51.516;13.670;2023-02-27T02:47:58;101470.84;;;1.21;77.15
41712;BME280;27399;51.516;13.670;2023-02-27T02:50:40;101464.50;;;1.35;77.16
41712;BME280;27399;51.516;13.670;2023-02-27T02:53:49;101484.78;;;1.38;78.20
41712;BME280;27399;51.516;13.670;2023-02-27T02:56:34;101487.75;;;1.65;77.31
41712;BME280;27399;51.516;13.670;2023-02-27T02:59:17;101483.19;;;1.42;77.24
41712;BME280;27399;51.516;13.670;2023-02-27T03:01:51;101490.03;;;1.58;76.81
41712;BME280;27399;51.516;13.670;2023-02-27T03:04:49;101492.72;;;1.59;75.14
41712;BME280;27399;51.516;13.670;2023-02-27T03:07:20;101490.50;;;1.49;75.08
41712;BME280;27399;51.516;13.670;2023-02-27T03:10:02;101497.47;;;1.47;75.27
41712;BME280;27399;51.516;13.670;2023-02-27T03:12:31;101494.41;;;1.77;74.39
41712;BME280;27399;51.516;13.670;2023-02-27T03:15:12;101503.41;;;1.62;74.02
41712;BME280;27399;51.516;13.670;2023-02-27T03:17:48;101499.59;;;1.55;74.66
41712;BME280;27399;51.516;13.670;2023-02-27T03:20:21;101506.78;;;1.60;74.31
41712;BME280;27399;51.516;13.670;2023-02-27T03:22:52;101484.44;;;1.50;74.86
41712;BME280;27399;51.516;13.670;2023-02-27T03:25:20;101501.81;;;1.66;74.33
41712;BME280;27399;51.516;13.670;2023-02-27T03:27:54;101500.34;;;1.53;73.98
41712;BME280;27399;51.516;13.670;2023-02-27T03:30:33;101509.84;;;1.69;73.56
41712;BME280;27399;51.516;13.670;2023-02-27T03:33:23;101493.22;;;1.50;74.19
41712;BME280;27399;51.516;13.670;2023-02-27T03:36:37;101512.13;;;1.61;73.93
41712;BME280;27399;51.516;13.670;2023-02-27T03:39:23;101503.88;;;1.53;74.43
41712;BME280;27399;51.516;13.670;2023-02-27T03:42:09;101510.47;;;1.63;73.65
41712;BME280;27399;51.516;13.670;2023-02-27T03:44:57;101503.41;;;1.62;74.09
41712;BME280;27399;51.516;13.670;2023-02-27T03:47:24;101500.72;;;1.61;73.76
41712;BME280;27399;51.516;13.670;2023-02-27T03:49:50;101504.78;;;1.54;73.96
41712;BME280;27399;51.516;13.670;2023-02-27T03:52:18;101517.53;;;1.64;73.47
41712;BME280;27399;51.516;13.670;2023-02-27T03:54:52;101514.53;;;1.57;74.05
41712;BME280;27399;51.516;13.670;2023-02-27T03:57:19;101518.19;;;1.60;73.85
41712;BME280;27399;51.516;13.670;2023-02-27T03:59:45;101529.50;;;1.77;73.59
41712;BME280;27399;51.516;13.670;2023-02-27T04:02:11;101536.19;;;1.70;73.81
41712;BME280;27399;51.516;13.670;2023-02-27T04:04:37;101530.41;;;1.78;73.40
41712;BME280;27399;51.516;13.670;2023-02-27T04:07:11;101534.28;;;1.66;74.05
41712;BME280;27399;51.516;13.670;2023-02-27T04:10:08;101548.94;;;1.61;74.08
41712;BME280;27399;51.516;13.670;2023-02-27T04:26:51;101565.91;;;1.68;74.19
41712;BME280;27399;51.516;13.670;2023-02-27T04:29:28;101556.00;;;1.62;74.15
41712;BME280;27399;51.516;13.670;2023-02-27T04:32:01;101574.00;;;1.73;74.46
41712;BME280;27399;51.516;13.670;2023-02-27T04:34:40;101570.19;;;1.66;74.31
41712;BME280;27399;51.516;13.670;2023-02-27T04:39:43;101571.88;;;1.64;74.12
41712;BME280;27399;51.516;13.670;2023-02-27T04:42:15;101574.53;;;1.46;74.51
41712;BME280;27399;51.516;13.670;2023-02-27T04:44:44;101574.81;;;1.52;74.28
41712;BME280;27399;51.516;13.670;2023-02-27T04:47:12;101573.50;;;1.42;74.65
41712;BME280;27399;51.516;13.670;2023-02-27T04:49:43;101574.81;;;1.52;74.78
41712;BME280;27399;51.516;13.670;2023-02-27T04:52:17;101571.34;;;1.53;74.44
41712;BME280;27399;51.516;13.670;2023-02-27T04:54:59;101572.31;;;1.55;74.44
41712;BME280;27399;51.516;13.670;2023-02-27T04:57:33;101573.00;;;1.51;74.72
41712;BME280;27399;51.516;13.670;2023-02-27T05:00:05;101577.81;;;1.60;75.21
41712;BME280;27399;51.516;13.670;2023-02-27T05:02:41;101586.25;;;1.34;75.93
41712;BME280;27399;51.516;13.670;2023-02-27T05:05:13;101577.81;;;1.60;75.34
41712;BME280;27399;51.516;13.670;2023-02-27T05:07:45;101585.22;;;1.68;74.80
41712;BME280;27399;51.516;13.670;2023-02-27T05:10:17;101588.69;;;1.67;75.08
41712;BME280;27399;51.516;13.670;2023-02-27T05:12:57;101589.19;;;1.60;75.29
41712;BME280;27399;51.516;13.670;2023-02-27T05:15:37;101584.91;;;1.62;75.24
41712;BME280;27399;51.516;13.670;2023-02-27T05:18:07;101580.00;;;1.50;75.43
41712;BME280;27399;51.516;13.670;2023-02-27T05:20:48;101591.84;;;1.60;75.08
41712;BME280;27399;51.516;13.670;2023-02-27T05:23:24;101586.66;;;1.62;75.33
41712;BME280;27399;51.516;13.670;2023-02-27T05:26:00;101586.16;;;1.70;75.73
41712;BME280;27399;51.516;13.670;2023-02-27T05:28:36;101592.09;;;1.47;75.94
41712;BME280;27399;51.516;13.670;2023-02-27T05:34:11;101586.47;;;1.57;75.83
41712;BME280;27399;51.516;13.670;2023-02-27T05:37:09;101594.19;;;1.54;76.04
41712;BME280;27399;51.516;13.670;2023-02-27T05:39:38;101588.16;;;1.57;75.87
41712;BME280;27399;51.516;13.670;2023-02-27T05:42:17;101589.75;;;1.53;76.05
41712;BME280;27399;51.516;13.670;2023-02-27T05:44:50;101594.56;;;1.62;75.81
41712;BME280;27399;51.516;13.670;2023-02-27T05:47:21;101598.69;;;1.57;75.70
41712;BME280;27399;51.516;13.670;2023-02-27T05:49:55;101594.84;;;1.50;75.52
41712;BME280;27399;51.516;13.670;2023-02-27T05:52:24;101588.78;;;1.51;75.63
41712;BME280;27399;51.516;13.670;2023-02-27T05:55:21;101590.56;;;1.52;75.48
41712;BME280;27399;51.516;13.670;2023-02-27T05:57:52;101595.84;;;1.52;75.40
41712;BME280;27399;51.516;13.670;2023-02-27T06:00:27;101598.06;;;1.62;75.67
41712;BME280;27399;51.516;13.670;2023-02-27T06:02:56;101608.16;;;1.53;75.53
41712;BME280;27399;51.516;13.670;2023-02-27T06:05:23;101599.88;;;1.63;75.21
41712;BME280;27399;51.516;13.670;2023-02-27T06:07:49;101613.69;;;1.59;75.43
41712;BME280;27399;51.516;13.670;2023-02-27T06:10:18;101602.00;;;1.52;75.33
41712;BME280;27399;51.516;13.670;2023-02-27T06:12:44;101610.84;;;1.54;74.74
41712;BME280;27399;51.516;13.670;2023-02-27T06:15:11;101618.69;;;1.53;74.95
41712;BME280;27399;51.516;13.670;2023-02-27T06:17:37;101620.47;;;1.54;74.73
41712;BME280;27399;51.516;13.670;2023-02-27T06:20:07;101629.47;;;1.59;75.20
41712;BME280;27399;51.516;13.670;2023-02-27T06:22:33;101633.41;;;1.67;74.96
41712;BME280;27399;51.516;13.670;2023-02-27T06:24:59;101639.72;;;1.53;74.86
41712;BME280;27399;51.516;13.670;2023-02-27T06:27:24;101638.88;;;1.72;74.49
41712;BME280;27399;51.516;13.670;2023-02-27T06:29:54;101634.28;;;1.68;74.16
41712;BME280;27399;51.516;13.670;2023-02-27T06:32:20;101641.97;;;1.63;74.76
41712;BME280;27399;51.516;13.670;2023-02-27T06:34:48;101631.59;;;1.66;74.69
41712;BME280;27399;51.516;13.670;2023-02-27T06:37:13;101626.72;;;1.56;74.83
41712;BME280;27399;51.516;13.670;2023-02-27T06:39:39;101641.28;;;1.67;75.09
41712;BME280;27399;51.516;13.670;2023-02-27T06:42:04;101638.78;;;1.70;74.89
41712;BME280;27399;51.516;13.670;2023-02-27T06:44:30;101637.69;;;1.65;74.94
41712;BME280;27399;51.516;13.670;2023-02-27T06:46:56;101637.47;;;1.61;75.56
41712;BME280;27399;51.516;13.670;2023-02-27T06:49:21;101641.50;;;1.72;75.44
41712;BME280;27399;51.516;13.670;2023-02-27T06:51:47;101637.97;;;1.91;75.33
41712;BME280;27399;51.516;13.670;2023-02-27T06:54:13;101639.78;;;1.92;75.87
41712;BME280;27399;51.516;13.670;2023-02-27T06:56:38;101642.50;;;1.94;75.33
41712;BME280;27399;51.516;13.670;2023-02-27T06:59:04;101640.34;;;1.85;75.45
41712;BME280;27399;51.516;13.670;2023-02-27T07:01:30;101636.88;;;1.86;75.23
41712;BME280;27399;51.516;13.670;2023-02-27T07:03:55;101636.50;;;1.78;75.02
41712;BME280;27399;51.516;13.670;2023-02-27T07:06:21;101646.25;;;1.99;74.93
41712;BME280;27399;51.516;13.670;2023-02-27T07:08:47;101644.78;;;1.86;75.56
41712;BME280;27399;51.516;13.670;2023-02-27T07:11:12;101644.53;;;1.99;75.15
41712;BME280;27399;51.516;13.670;2023-02-27T07:13:38;101647.78;;;1.94;75.51
41712;BME280;27399;51.516;13.670;2023-02-27T07:16:04;101654.34;;;2.04;75.32
41712;BME280;27399;51.516;13.670;2023-02-27T07:18:30;101642.63;;;1.97;74.88
41712;BME280;27399;51.516;13.670;2023-02-27T07:20:55;101654.56;;;2.08;75.16
41712;BME280;27399;51.516;13.670;2023-02-27T07:23:22;101641.97;;;2.21;74.79
41712;BME280;27399;51.516;13.670;2023-02-27T07:25:48;101652.97;;;2.12;75.44
41712;BME280;27399;51.516;13.670;2023-02-27T07:28:14;101640.22;;;2.01;74.86
41712;BME280;27399;51.516;13.670;2023-02-27T07:30:40;101657.53;;;2.16;74.74
41712;BME280;27399;51.516;13.670;2023-02-27T07:33:06;101666.56;;;2.41;75.30
41712;BME280;27399;51.516;13.670;2023-02-27T07:35:32;101668.06;;;2.16;75.08
41712;BME280;27399;51.516;13.670;2023-02-27T07:37:57;101670.28;;;2.26;74.91
41712;BME280;27399;51.516;13.670;2023-02-27T07:40:23;101663.44;;;2.30;74.62
41712;BME280;27399;51.516;13.670;2023-02-27T07:42:48;101668.84;;;2.53;74.75
41712;BME280;27399;51.516;13.670;2023-02-27T07:45:14;101666.56;;;2.41;75.73
41712;BME280;27399;51.516;13.670;2023-02-27T07:47:43;101670.19;;;2.43;75.42
41712;BME280;27399;51.516;13.670;2023-02-27T07:50:09;101684.69;;;2.54;74.44
41712;BME280;27399;51.516;13.670;2023-02-27T07:52:39;101674.38;;;2.39;74.15
41712;BME280;27399;51.516;13.670;2023-02-27T07:55:05;101678.53;;;2.34;75.21
41712;BME280;27399;51.516;13.670;2023-02-27T07:57:32;101663.31;;;2.46;75.00
41712;BME280;27399;51.516;13.670;2023-02-27T07:59:58;101682.97;;;2.55;74.54
41712;BME280;27399;51.516;13.670;2023-02-27T08:02:24;101691.88;;;2.37;75.05
41712;BME280;27399;51.516;13.670;2023-02-27T08:04:50;101687.75;;;2.44;76.25
41712;BME280;27399;51.516;13.670;2023-02-27T08:07:16;101696.19;;;2.76;75.52
41712;BME280;27399;51.516;13.670;2023-02-27T08:09:42;101697.72;;;2.71;75.57
41712;BME280;27399;51.516;13.670;2023-02-27T08:12:07;101695.63;;;2.83;75.49
41712;BME280;27399;51.516;13.670;2023-02-27T08:14:33;101709.63;;;2.82;75.06
41712;BME280;27399;51.516;13.670;2023-02-27T08:16:58;101702.22;;;2.73;75.92
41712;BME280;27399;51.516;13.670;2023-02-27T08:19:27;101703.44;;;2.82;75.60
41712;BME280;27399;51.516;13.670;2023-02-27T08:21:53;101691.19;;;2.82;75.58
41712;BME280;27399;51.516;13.670;2023-02-27T08:24:18;101700.38;;;2.92;74.90
41712;BME280;27399;51.516;13.670;2023-02-27T08:26:44;101706.56;;;2.92;75.89
41712;BME280;27399;51.516;13.670;2023-02-27T08:29:10;101689.66;;;2.87;75.20
41712;BME280;27399;51.516;13.670;2023-02-27T08:31:35;101688.66;;;3.05;74.53
41712;BME280;27399;51.516;13.670;2023-02-27T08:34:01;101685.63;;;3.17;74.87
41712;BME280;27399;51.516;13.670;2023-02-27T08:36:26;101689.53;;;3.05;74.28
41712;BME280;27399;51.516;13.670;2023-02-27T08:38:52;101684.75;;;3.16;74.97
41712;BME280;27399;51.516;13.670;2023-02-27T08:41:18;101696.47;;;3.03;76.10
41712;BME280;27399;51.516;13.670;2023-02-27T08:43:43;101694.19;;;3.11;75.91
41712;BME280;27399;51.516;13.670;2023-02-27T08:46:09;101699.72;;;3.17;76.16
41712;BME280;27399;51.516;13.670;2023-02-27T08:48:34;101705.38;;;3.27;75.43
41712;BME280;27399;51.516;13.670;2023-02-27T08:51:00;101703.19;;;3.16;74.59
41712;BME280;27399;51.516;13.670;2023-02-27T08:53:25;101702.47;;;3.20;74.52
41712;BME280;27399;51.516;13.670;2023-02-27T08:55:52;101704.41;;;3.24;75.71
41712;BME280;27399;51.516;13.670;2023-02-27T08:58:18;101699.00;;;3.21;74.80
41712;BME280;27399;51.516;13.670;2023-02-27T09:00:44;101706.91;;;3.21;74.01
41712;BME280;27399;51.516;13.670;2023-02-27T09:03:10;101701.47;;;3.38;73.51
41712;BME280;27399;51.516;13.670;2023-02-27T09:05:36;101709.09;;;3.32;74.41
41712;BME280;27399;51.516;13.670;2023-02-27T09:08:03;101709.34;;;3.17;74.27
41712;BME280;27399;51.516;13.670;2023-02-27T09:10:30;101713.16;;;3.23;74.34
41712;BME280;27399;51.516;13.670;2023-02-27T09:12:57;101710.56;;;3.25;73.88
41712;BME280;27399;51.516;13.670;2023-02-27T09:15:23;101713.22;;;3.46;73.87
41712;BME280;27399;51.516;13.670;2023-02-27T09:17:49;101719.13;;;3.62;74.03
41712;BME280;27399;51.516;13.670;2023-02-27T09:20:14;101719.44;;;3.69;74.30
41712;BME280;27399;51.516;13.670;2023-02-27T09:22:40;101716.84;;;3.48;74.20
41712;BME280;27399;51.516;13.670;2023-02-27T09:25:07;101709.53;;;3.64;74.87
41712;BME280;27399;51.516;13.670;2023-02-27T09:28:04;101723.78;;;3.90;73.56
41712;BME280;27399;51.516;13.670;2023-02-27T09:30:29;101719.69;;;3.98;73.50
41712;BME280;27399;51.516;13.670;2023-02-27T09:32:55;101726.84;;;3.78;74.17
41712;BME280;27399;51.516;13.670;2023-02-27T09:35:20;101723.28;;;4.00;73.14
41712;BME280;27399;51.516;13.670;2023-02-27T09:37:46;101729.19;;;4.16;73.09
41712;BME280;27399;51.516;13.670;2023-02-27T09:40:31;101734.47;;;3.93;71.94
41712;BME280;27399;51.516;13.670;2023-02-27T09:43:00;101723.81;;;3.92;71.52
41712;BME280;27399;51.516;13.670;2023-02-27T09:45:29;101728.09;;;3.88;72.23
41712;BME280;27399;51.516;13.670;2023-02-27T09:48:35;101727.09;;;3.63;72.50
41712;BME280;27399;51.516;13.670;2023-02-27T09:51:04;101733.63;;;4.17;72.61
41712;BME280;27399;51.516;13.670;2023-02-27T09:59:00;101725.28;;;4.77;70.16
41712;BME280;27399;51.516;13.670;2023-02-27T10:01:56;101724.38;;;5.01;70.09
41712;BME280;27399;51.516;13.670;2023-02-27T10:07:05;101721.09;;;5.34;68.53
41712;BME280;27399;51.516;13.670;2023-02-27T10:09:34;101730.22;;;5.17;69.91
41712;BME280;27399;51.516;13.670;2023-02-27T10:14:58;101718.66;;;5.68;66.97
41712;BME280;27399;51.516;13.670;2023-02-27T10:17:48;101718.63;;;5.66;66.85
41712;BME280;27399;51.516;13.670;2023-02-27T10:20:37;101722.16;;;5.39;66.83
41712;BME280;27399;51.516;13.670;2023-02-27T10:23:17;101708.16;;;5.43;66.69
41712;BME280;27399;51.516;13.670;2023-02-27T10:25:47;101722.22;;;5.68;67.96
41712;BME280;27399;51.516;13.670;2023-02-27T10:28:19;101716.00;;;5.68;67.72
41712;BME280;27399;51.516;13.670;2023-02-27T10:30:56;101705.38;;;5.66;68.89
41712;BME280;27399;51.516;13.670;2023-02-27T10:35:57;101716.94;;;5.97;68.22
41712;BME280;27399;51.516;13.670;2023-02-27T10:41:05;101710.06;;;5.48;69.01
41712;BME280;27399;51.516;13.670;2023-02-27T10:43:32;101718.88;;;5.74;69.07
41712;BME280;27399;51.516;13.670;2023-02-27T10:46:02;101717.41;;;5.84;68.33
41712;BME280;27399;51.516;13.670;2023-02-27T10:48:31;101721.00;;;5.86;67.81
41712;BME280;27399;51.516;13.670;2023-02-27T10:53:45;101710.72;;;5.68;70.29
41712;BME280;27399;51.516;13.670;2023-02-27T10:56:25;101719.25;;;5.86;69.71
41712;BME280;27399;51.516;13.670;2023-02-27T10:59:18;101719.16;;;5.83;69.71
41712;BME280;27399;51.516;13.670;2023-02-27T11:01:58;101720.75;;;5.51;68.34
41712;BME280;27399;51.516;13.670;2023-02-27T11:04:32;101717.72;;;5.66;68.99
41712;BME280;27399;51.516;13.670;2023-02-27T11:07:00;101719.13;;;5.54;67.92
41712;BME280;27399;51.516;13.670;2023-02-27T11:09:30;101722.09;;;5.93;68.84
41712;BME280;27399;51.516;13.670;2023-02-27T11:12:23;101715.66;;;5.57;69.84
41712;BME280;27399;51.516;13.670;2023-02-27T11:14:55;101716.63;;;5.59;69.88
41712;BME280;27399;51.516;13.670;2023-02-27T11:19:53;101706.47;;;5.46;69.83
41712;BME280;27399;51.516;13.670;2023-02-27T11:22:21;101708.28;;;5.47;68.81
41712;BME280;27399;51.516;13.670;2023-02-27T11:24:50;101705.19;;;5.60;68.82
41712;BME280;27399;51.516;13.670;2023-02-27T11:27:25;101704.78;;;5.75;67.98
41712;BME280;27399;51.516;13.670;2023-02-27T11:29:57;101704.41;;;5.64;67.47
41712;BME280;27399;51.516;13.670;2023-02-27T11:32:26;101699.78;;;5.57;67.16
41712;BME280;27399;51.516;13.670;2023-02-27T11:34:55;101703.00;;;5.21;65.64
41712;BME280;27399;51.516;13.670;2023-02-27T11:37:32;101702.88;;;5.71;66.87
41712;BME280;27399;51.516;13.670;2023-02-27T11:40:12;101702.03;;;5.99;66.68
41712;BME280;27399;51.516;13.670;2023-02-27T11:43:05;101697.88;;;6.08;66.14
41712;BME280;27399;51.516;13.670;2023-02-27T11:45:38;101686.47;;;6.41;64.56
41712;BME280;27399;51.516;13.670;2023-02-27T11:48:37;101693.81;;;6.49;63.73
41712;BME280;27399;51.516;13.670;2023-02-27T11:54:29;101695.88;;;6.61;63.98
41712;BME280;27399;51.516;13.670;2023-02-27T11:57:30;101691.59;;;6.34;60.69
41712;BME280;27399;51.516;13.670;2023-02-27T12:00:05;101697.69;;;6.62;60.97
41712;BME280;27399;51.516;13.670;2023-02-27T12:03:04;101689.03;;;6.38;62.24
41712;BME280;27399;51.516;13.670;2023-02-27T12:05:32;101699.50;;;6.63;60.90
41712;BME280;27399;51.516;13.670;2023-02-27T12:08:16;101700.59;;;6.41;60.82
41712;BME280;27399;51.516;13.670;2023-02-27T12:10:54;101696.38;;;6.48;60.93
41712;BME280;27399;51.516;13.670;2023-02-27T12:13:26;101700.47;;;6.36;61.32
41712;BME280;27399;51.516;13.670;2023-02-27T12:16:04;101702.06;;;6.01;62.21
41712;BME280;27399;51.516;13.670;2023-02-27T12:18:53;101693.78;;;6.19;60.75
41712;BME280;27399;51.516;13.670;2023-02-27T12:21:24;101675.25;;;5.63;61.59
41712;BME280;27399;51.516;13.670;2023-02-27T12:23:55;101689.44;;;6.21;61.83
41712;BME280;27399;51.516;13.670;2023-02-27T12:26:26;101694.34;;;5.80;62.94
41712;BME280;27399;51.516;13.670;2023-02-27T12:28:59;101698.38;;;5.68;62.65
41712;BME280;27399;51.516;13.670;2023-02-27T12:31:35;101695.28;;;5.82;62.60
41712;BME280;27399;51.516;13.670;2023-02-27T12:34:47;101696.88;;;5.77;62.79
41712;BME280;27399;51.516;13.670;2023-02-27T12:37:14;101693.56;;;5.84;62.86
41712;BME280;27399;51.516;13.670;2023-02-27T12:39:42;101689.03;;;5.80;62.37
41712;BME280;27399;51.516;13.670;2023-02-27T12:42:31;101687.09;;;5.47;62.21
41712;BME280;27399;51.516;13.670;2023-02-27T12:51:25;101702.84;;;5.69;59.18
41712;BME280;27399;51.516;13.670;2023-02-27T12:54:13;101703.00;;;4.95;55.47
41712;BME280;27399;51.516;13.670;2023-02-27T13:02:03;101693.13;;;5.42;57.05
41712;BME280;27399;51.516;13.670;2023-02-27T13:04:45;101693.66;;;5.58;59.04
41712;BME280;27399;51.516;13.670;2023-02-27T13:07:36;101691.75;;;5.54;59.10
41712;BME280;27399;51.516;13.670;2023-02-27T13:10:14;101696.34;;;5.59;58.85
41712;BME280;27399;51.516;13.670;2023-02-27T13:12:47;101686.00;;;5.67;59.49
41712;BME280;27399;51.516;13.670;2023-02-27T13:15:18;101697.53;;;5.69;60.02
41712;BME280;27399;51.516;13.670;2023-02-27T13:17:48;101697.44;;;5.66;59.37
41712;BME280;27399;51.516;13.670;2023-02-27T13:25:37;101698.84;;;5.55;59.96
41712;BME280;27399;51.516;13.670;2023-02-27T13:28:10;101704.38;;;5.63;58.65
41712;BME280;27399;51.516;13.670;2023-02-27T13:30:41;101706.06;;;5.61;58.61
41712;BME280;27399;51.516;13.670;2023-02-27T13:38:44;101707.63;;;5.54;58.96
41712;BME280;27399;51.516;13.670;2023-02-27T13:46:32;101712.81;;;5.51;59.19
41712;BME280;27399;51.516;13.670;2023-02-27T13:59:26;101722.34;;;5.46;59.79
41712;BME280;27399;51.516;13.670;2023-02-27T14:01:59;101724.69;;;5.36;58.41
41712;BME280;27399;51.516;13.670;2023-02-27T14:04:26;101720.78;;;5.25;60.16
41712;BME280;27399;51.516;13.670;2023-02-27T14:07:11;101719.91;;;5.52;59.41
41712;BME280;27399;51.516;13.670;2023-02-27T14:09:40;101726.00;;;5.49;60.33
41712;BME280;27399;51.516;13.670;2023-02-27T14:12:26;101734.31;;;5.34;60.80
41712;BME280;27399;51.516;13.670;2023-02-27T14:14:52;101731.03;;;5.41;60.17
41712;BME280;27399;51.516;13.670;2023-02-27T14:20:14;101728.97;;;5.33;60.86
41712;BME280;27399;51.516;13.670;2023-02-27T14:25:49;101728.44;;;5.43;60.33
41712;BME280;27399;51.516;13.670;2023-02-27T14:28:29;101714.00;;;5.33;59.93
41712;BME280;27399;51.516;13.670;2023-02-27T14:33:54;101735.88;;;5.55;59.72
41712;BME280;27399;51.516;13.670;2023-02-27T14:36:34;101723.84;;;5.37;59.25
41712;BME280;27399;51.516;13.670;2023-02-27T14:39:04;101732.81;;;5.42;60.22
41712;BME280;27399;51.516;13.670;2023-02-27T14:41:39;101724.56;;;5.59;59.61
41712;BME280;27399;51.516;13.670;2023-02-27T14:44:21;101731.13;;;5.45;59.08
41712;BME280;27399;51.516;13.670;2023-02-27T14:46:49;101730.56;;;5.53;59.89
41712;BME280;27399;51.516;13.670;2023-02-27T14:49:22;101737.88;;;5.62;59.92
41712;BME280;27399;51.516;13.670;2023-02-27T14:51:49;101748.28;;;5.30;58.45
41712;BME280;27399;51.516;13.670;2023-02-27T14:54:21;101741.13;;;5.27;60.10
41712;BME280;27399;51.516;13.670;2023-02-27T14:56:54;101747.16;;;5.49;60.14
41712;BME280;27399;51.516;13.670;2023-02-27T14:59:29;101751.63;;;5.50;59.54
41712;BME280;27399;51.516;13.670;2023-02-27T15:01:57;101753.59;;;5.57;59.92
41712;BME280;27399;51.516;13.670;2023-02-27T15:04:26;101755.91;;;5.47;59.54
41712;BME280;27399;51.516;13.670;2023-02-27T15:06:54;101747.63;;;5.63;59.69
41712;BME280;27399;51.516;13.670;2023-02-27T15:09:23;101754.09;;;5.46;60.53